Hlavní strana
METAR-TAF:

METAR-TAF

Letiště :

Letiště Kyjev-Žuljany

Kyjev, Ukrajina

zeměpisná šířka: 50-24N, zeměpisná délka: 030-34E, výška: 166 m

Aktuální stav počasí

Zpráva byla vytvořena před 33 minutami, v 16:00 UTC
Severozápadní vítr 8 kt
Teplota -14°C
Vlhkost vzduchu 72%
Tlak 1017 hPa
Viditelnost 10 km a více
Skoro jasno ve výšce 1700 ft
Oblačno až skoro zataženo ve výšce 4900 ft

METAR: UKKK 181600Z 32004MPS 9999 FEW017 BKN049 M14/M18 Q1017 R26/820350 NOSIG

Čas: 18:33 (16:33 UTC)

Předpověď počasí

Zpráva byla vytvořena před 5 hodinami a 30 minutami, v 11:03 UTC
Předpověď platná od 18 v 12 UTC do 19 v 12 UTC
Severozápadní vítr 6 kt s nárazy do 16 kt
Viditelnost: 6000 m
Oblačno až skoro zataženo ve výšce 1000 ft
Dočasný
od 18 v 12 UTC do 19 v 12 UTC
vítr z různých směrů 2 kt
Viditelnost: 2000 m
Oblačno až skoro zataženo ve výšce 600 ft
slabé sněžení, kouřmo

TAF: UKKK 181103Z 1812/1912 31003G08MPS 6000 BKN010 TEMPO 1812/1912 VRB01MPS 2000 -SN BR BKN006

Stav a předpovědi počasí z více než 4 000 letišť (zprávy METAR a TAF).

Červené a žluté tečky na mapě představují dostupné meteorologické stanice.

Když kurzor umístíte na tečku, zobrazí se název stanice.

Pak kliknutím zobrazíte stav a předpověď počasí.

Chcete-li změnit mapu, kliknutím na zelené tlačítko se znaménkem +mapu přiblížíte, kliknutím na zelené tlačítko se znaménkem – mapu oddálíte a kliknutím na zelené šipky přejdete na sousední mapy.


METAR-TAF: